Time;durP1;ratioP1;P1;durP2;ratioP2;P2;SDS_P1;SDS_P2;PMS_P1;PMS_P2;Temp;Humidity;BMP_temperature;BMP_pressure;BME280_temperature;BME280_humidity;BME280_pressure;Samples;Min_cycle;Max_cycle;Signal;HPM_P1;HPM_P2
2022/09/14 00:02:11;;;;;;;;;;;;;;;16.73;93.12;96453.81;5019734;28;19921;-65
2022/09/14 00:04:40;;;;;;;;;;;;;;;16.77;93.05;96452.88;5026084;28;19928;-65
2022/09/14 00:07:07;;;;;;;;;;;;;;;16.97;90.52;96458.09;5026255;28;19967;-65
2022/09/14 00:09:33;;;;;;;;;;;;;;;17.14;89.51;96444.50;5018835;28;19922;-65
2022/09/14 00:12:00;;;;;;;;;;;;;;;17.12;90.21;96454.13;5028442;28;19936;-65
2022/09/14 00:14:26;;;;;;;;;;;;;;;17.17;89.64;96445.78;5036204;28;20019;-65
2022/09/14 00:16:52;;;;;;;;;;;;;;;17.23;88.56;96440.97;5030189;28;19960;-65
2022/09/14 00:19:23;;;;;;;;;;;;;;;17.26;88.83;96438.44;5025283;28;19949;-65
2022/09/14 00:21:51;;;;;;;;;;;;;;;17.32;88.39;96432.78;5018066;28;19967;-65
2022/09/14 00:24:18;;;;;;;;;;;;;;;17.31;89.03;96428.47;5008396;28;20012;-65
2022/09/14 00:26:44;;;;;;;;;;;;;;;17.28;90.17;96430.69;5024702;28;19920;-65
2022/09/14 00:29:10;;;;;;;;;;;;;;;17.31;89.46;96425.72;5031279;28;19987;-65
2022/09/14 00:31:38;;;;;;;;;;;;;;;17.38;88.39;96421.38;5020165;28;19921;-65
2022/09/14 00:34:05;;;;;;;;;;;;;;;17.48;87.70;96417.53;5007862;28;19921;-65
2022/09/14 00:36:32;;;;;;;;;;;;;;;17.50;87.01;96411.72;5014628;28;19931;-65
2022/09/14 00:38:59;;;;;;;;;;;;;;;17.33;89.80;96409.78;5026083;28;19921;-65
2022/09/14 00:41:28;;;;;;;;;;;;;;;17.41;88.93;96418.00;5024105;28;20020;-65
2022/09/14 00:44:21;;;;;;;;;;;;;;;17.42;88.83;96411.41;5038192;28;20435;-65
2022/09/14 00:46:49;;;;;;;;;;;;;;;17.27;90.08;96406.38;5028430;28;19931;-65
2022/09/14 00:49:17;;;;;;;;;;;;;;;17.33;90.16;96396.91;5012767;28;19994;-65
2022/09/14 00:51:51;;;;;;;;;;;;;;;17.37;89.09;96381.47;5014540;28;19921;-65
2022/09/14 00:54:18;;;;;;;;;;;;;;;17.44;87.91;96375.50;5020810;28;20015;-65
2022/09/14 00:56:45;;;;;;;;;;;;;;;17.47;87.83;96365.84;5026288;28;19927;-65
2022/09/14 00:59:14;;;;;;;;;;;;;;;17.50;88.58;96357.78;5026338;28;20438;-65
2022/09/14 01:01:41;;;;;;;;;;;;;;;17.54;87.75;96358.75;5022328;28;20202;-65
2022/09/14 01:04:07;;;;;;;;;;;;;;;17.60;87.56;96364.88;5014125;28;20008;-65
2022/09/14 01:06:43;;;;;;;;;;;;;;;17.32;93.67;96369.88;5013660;28;19965;-65
2022/09/14 01:09:15;;;;;;;;;;;;;;;17.16;96.39;96368.41;5018911;28;19921;-65
2022/09/14 01:11:48;;;;;;;;;;;;;;;16.93;96.34;96364.16;5022925;28;20003;-65
2022/09/14 01:14:24;;;;;;;;;;;;;;;16.91;96.87;96345.31;5026435;28;19921;-65
2022/09/14 01:16:51;;;;;;;;;;;;;;;16.94;95.62;96341.16;5027540;28;20479;-65
2022/09/14 01:19:26;;;;;;;;;;;;;;;17.05;97.24;96338.94;5039023;28;19921;-65
2022/09/14 01:21:55;;;;;;;;;;;;;;;16.95;99.94;96346.28;5045498;28;20007;-65
2022/09/14 01:24:41;;;;;;;;;;;;;;;16.84;99.87;96362.19;5034026;28;20177;-65
2022/09/14 01:27:14;;;;;;;;;;;;;;;16.70;100.00;96406.03;5021361;28;20016;-65
2022/09/14 01:29:50;;;;;;;;;;;;;;;16.49;100.00;96488.59;5017530;28;19922;-65
2022/09/14 01:32:31;;;;;;;;;;;;;;;16.66;100.00;96499.94;5006823;28;20044;-65
2022/09/14 01:35:01;;;;;;;;;;;;;;;16.83;100.00;96510.94;5017026;28;20027;-65
2022/09/14 01:37:40;;;;;;;;;;;;;;;16.76;100.00;96456.72;5009607;28;19922;-65
2022/09/14 01:44:06;;;;;;;;;;;;;;;16.30;100.00;96447.81;5029043;28;20470;-65
2022/09/14 01:46:37;;;;;;;;;;;;;;;16.07;100.00;96449.75;5025545;28;20370;-64
2022/09/14 01:49:31;;;;;;;;;;;;;;;15.81;100.00;96442.16;5023882;28;19921;-65
2022/09/14 01:52:01;;;;;;;;;;;;;;;15.85;100.00;96462.25;5018610;28;19955;-65
2022/09/14 01:54:30;;;;;;;;;;;;;;;15.84;100.00;96479.72;5020099;28;20303;-65
2022/09/14 01:57:01;;;;;;;;;;;;;;;15.87;100.00;96481.84;5021116;28;19931;-65
2022/09/14 01:59:30;;;;;;;;;;;;;;;15.84;100.00;96486.00;5025419;28;20024;-65
2022/09/14 02:02:06;;;;;;;;;;;;;;;15.89;100.00;96473.34;5024966;28;20352;-65
2022/09/14 02:04:51;;;;;;;;;;;;;;;15.91;100.00;96482.84;5026597;28;19924;-65
2022/09/14 02:07:18;;;;;;;;;;;;;;;15.91;100.00;96482.84;5011448;28;20025;-65
2022/09/14 02:09:46;;;;;;;;;;;;;;;15.90;100.00;96486.69;5019442;28;20194;-65
2022/09/14 02:12:13;;;;;;;;;;;;;;;15.93;100.00;96474.34;5027031;28;19991;-65
2022/09/14 02:14:39;;;;;;;;;;;;;;;15.98;100.00;96458.69;5042019;28;20101;-65
2022/09/14 02:17:07;;;;;;;;;;;;;;;16.02;100.00;96453.41;5013492;28;20296;-65
2022/09/14 02:19:36;;;;;;;;;;;;;;;16.08;100.00;96454.09;5007321;28;19927;-65
2022/09/14 02:22:03;;;;;;;;;;;;;;;16.06;100.00;96459.03;5024869;28;20015;-65
2022/09/14 02:24:29;;;;;;;;;;;;;;;16.13;100.00;96453.97;5025769;28;19928;-65
2022/09/14 02:26:57;;;;;;;;;;;;;;;16.06;100.00;96451.66;5016089;28;19921;-65
2022/09/14 02:29:23;;;;;;;;;;;;;;;15.99;100.00;96471.22;5024919;28;19964;-65
2022/09/14 02:31:49;;;;;;;;;;;;;;;15.97;100.00;96478.94;5014110;28;19921;-65
2022/09/14 02:34:35;;;;;;;;;;;;;;;16.01;100.00;96478.28;5006782;28;19956;-65
2022/09/14 02:37:30;;;;;;;;;;;;;;;15.98;100.00;96472.34;5013895;28;19943;-65
2022/09/14 02:40:00;;;;;;;;;;;;;;;15.99;100.00;96473.94;5004003;28;19922;-65
2022/09/14 02:42:26;;;;;;;;;;;;;;;16.01;100.00;96459.19;5029514;28;20012;-65
2022/09/14 02:44:55;;;;;;;;;;;;;;;15.90;100.00;96444.94;5042086;28;20430;-65
2022/09/14 02:47:28;;;;;;;;;;;;;;;15.93;100.00;96431.50;5006193;28;19926;-64
2022/09/14 02:50:24;;;;;;;;;;;;;;;15.88;100.00;96441.72;5018147;28;19921;-65
2022/09/14 02:52:50;;;;;;;;;;;;;;;15.84;100.00;96442.34;5018042;28;19920;-65
2022/09/14 02:55:18;;;;;;;;;;;;;;;15.83;100.00;96439.91;5028521;28;20406;-65
2022/09/14 02:57:57;;;;;;;;;;;;;;;15.83;100.00;96440.72;5024765;28;19931;-65
2022/09/14 03:00:24;;;;;;;;;;;;;;;15.82;100.00;96428.19;5024149;28;19921;-65
2022/09/14 03:02:50;;;;;;;;;;;;;;;15.82;100.00;96427.38;5029020;28;19921;-65
2022/09/14 03:05:16;;;;;;;;;;;;;;;15.81;100.00;96425.78;5026547;28;20315;-65
2022/09/14 03:07:43;;;;;;;;;;;;;;;15.82;100.00;96416.47;5014622;28;19925;-66
2022/09/14 03:10:09;;;;;;;;;;;;;;;15.84;100.00;96408.75;5027294;28;20390;-65
2022/09/14 03:12:37;;;;;;;;;;;;;;;15.83;100.00;96399.78;5010936;28;19928;-65
2022/09/14 03:15:04;;;;;;;;;;;;;;;15.76;100.00;96399.41;5011727;28;20027;-65
2022/09/14 03:17:30;;;;;;;;;;;;;;;15.85;100.00;96405.72;5009487;28;20028;-65
2022/09/14 03:19:57;;;;;;;;;;;;;;;15.86;100.00;96401.88;5028631;28;20384;-65
2022/09/14 03:22:23;;;;;;;;;;;;;;;15.93;100.00;96395.19;5021876;28;20375;-65
2022/09/14 03:24:49;;;;;;;;;;;;;;;15.96;100.00;96384.47;5023147;28;20076;-65
2022/09/14 03:27:16;;;;;;;;;;;;;;;15.97;100.00;96388.84;5024454;28;19972;-65
2022/09/14 03:29:42;;;;;;;;;;;;;;;15.82;100.00;96394.63;5008884;28;20412;-65
2022/09/14 03:32:11;;;;;;;;;;;;;;;15.80;100.00;96391.41;5025964;28;20020;-65
2022/09/14 03:34:37;;;;;;;;;;;;;;;15.83;100.00;96390.78;5016642;28;20019;-65
2022/09/14 03:37:03;;;;;;;;;;;;;;;15.81;100.00;96396.53;5010356;28;20019;-65
2022/09/14 03:39:30;;;;;;;;;;;;;;;15.83;100.00;96402.50;5023748;28;20031;-65
2022/09/14 03:41:56;;;;;;;;;;;;;;;15.98;100.00;96393.16;5023933;28;20016;-65
2022/09/14 03:44:22;;;;;;;;;;;;;;;15.94;100.00;96389.44;5037477;28;19925;-65
2022/09/14 03:46:49;;;;;;;;;;;;;;;15.98;100.00;96378.72;5028297;28;19921;-65
2022/09/14 03:49:15;;;;;;;;;;;;;;;15.97;100.00;96386.09;5028024;28;19968;-65
2022/09/14 03:51:41;;;;;;;;;;;;;;;15.98;100.00;96393.16;5026980;28;20384;-65
2022/09/14 03:54:08;;;;;;;;;;;;;;;16.04;100.00;96391.13;5039036;28;19921;-65
2022/09/14 03:56:34;;;;;;;;;;;;;;;16.09;100.00;96390.16;5030501;28;20364;-65
2022/09/14 03:59:01;;;;;;;;;;;;;;;16.08;100.00;96378.47;5011253;28;19925;-65
2022/09/14 04:01:27;;;;;;;;;;;;;;;15.99;100.00;96378.41;5018524;28;20011;-65
2022/09/14 04:03:54;;;;;;;;;;;;;;;15.92;100.00;96363.56;5022805;28;19937;-65
2022/09/14 04:06:20;;;;;;;;;;;;;;;15.85;100.00;96374.91;5009853;28;20015;-65
2022/09/14 04:08:47;;;;;;;;;;;;;;;15.84;100.00;96355.00;5028672;28;20019;-65
2022/09/14 04:11:15;;;;;;;;;;;;;;;15.79;100.00;96354.31;5018585;28;19929;-65
2022/09/14 04:13:41;;;;;;;;;;;;;;;15.81;100.00;96355.59;5026926;28;19931;-65
2022/09/14 04:16:08;;;;;;;;;;;;;;;15.80;100.00;96359.47;5021581;28;20476;-65
2022/09/14 04:18:34;;;;;;;;;;;;;;;15.76;100.00;96358.47;5020455;28;20041;-65
2022/09/14 04:21:02;;;;;;;;;;;;;;;15.80;100.00;96358.63;5026773;28;20387;-65
2022/09/14 04:23:34;;;;;;;;;;;;;;;15.83;100.00;96358.84;5022116;28;20029;-65
2022/09/14 04:26:21;;;;;;;;;;;;;;;15.75;100.00;96354.13;5023306;28;19931;-65
2022/09/14 04:28:47;;;;;;;;;;;;;;;15.81;100.00;96352.88;5027224;28;19935;-66
2022/09/14 04:31:14;;;;;;;;;;;;;;;15.94;100.00;96351.22;5019803;28;19928;-66
2022/09/14 04:33:44;;;;;;;;;;;;;;;15.96;100.00;96359.13;5027138;28;19921;-65
2022/09/14 04:36:12;;;;;;;;;;;;;;;15.94;100.00;96373.06;5024935;28;20016;-65
2022/09/14 04:38:39;;;;;;;;;;;;;;;15.98;100.00;96370.50;5026851;28;19921;-66
2022/09/14 04:41:10;;;;;;;;;;;;;;;16.02;100.00;96368.78;5026284;28;19921;-65
2022/09/14 04:43:37;;;;;;;;;;;;;;;16.09;100.00;96382.78;5029982;28;20459;-65
2022/09/14 04:46:04;;;;;;;;;;;;;;;16.17;100.00;96389.41;5024636;28;20120;-65
2022/09/14 04:48:34;;;;;;;;;;;;;;;16.36;100.00;96391.09;5024155;28;19928;-65
2022/09/14 04:51:12;;;;;;;;;;;;;;;16.43;100.00;96390.69;5026600;28;19921;-65
2022/09/14 04:53:39;;;;;;;;;;;;;;;16.52;100.00;96407.91;5038887;28;20019;-65
2022/09/14 04:56:07;;;;;;;;;;;;;;;16.59;100.00;96419.19;5027354;28;19927;-65
2022/09/14 04:58:34;;;;;;;;;;;;;;;16.58;100.00;96417.56;5022208;28;20020;-65
2022/09/14 05:01:01;;;;;;;;;;;;;;;16.48;100.00;96401.47;5012074;28;19936;-65
2022/09/14 05:03:27;;;;;;;;;;;;;;;16.47;100.00;96397.91;5023789;28;19967;-65
2022/09/14 05:05:54;;;;;;;;;;;;;;;16.38;100.00;96405.28;5007906;28;20027;-65
2022/09/14 05:08:20;;;;;;;;;;;;;;;16.41;100.00;96404.66;5009125;28;19952;-65
2022/09/14 05:10:46;;;;;;;;;;;;;;;16.44;100.00;96401.28;5010367;28;20023;-65
2022/09/14 05:13:14;;;;;;;;;;;;;;;16.44;100.00;96393.06;5025565;28;20315;-65
2022/09/14 05:15:41;;;;;;;;;;;;;;;16.42;100.00;96389.88;5023237;28;20020;-65
2022/09/14 05:18:07;;;;;;;;;;;;;;;16.40;100.00;96388.56;5027192;28;19951;-65
2022/09/14 05:20:34;;;;;;;;;;;;;;;16.34;100.00;96385.16;5033770;28;20025;-65
2022/09/14 05:23:00;;;;;;;;;;;;;;;16.34;100.00;96393.34;5021439;28;20396;-65
2022/09/14 05:25:27;;;;;;;;;;;;;;;16.42;100.00;96399.97;5026645;28;20354;-65
2022/09/14 05:27:53;;;;;;;;;;;;;;;16.41;100.00;96409.31;5019860;28;20182;-67
2022/09/14 05:30:19;;;;;;;;;;;;;;;16.37;100.00;96401.72;5018433;28;20312;-65
2022/09/14 05:32:46;;;;;;;;;;;;;;;16.45;100.00;96400.19;5024391;28;19929;-65
2022/09/14 05:35:12;;;;;;;;;;;;;;;16.51;100.00;96404.38;5026556;28;19933;-65
2022/09/14 05:37:38;;;;;;;;;;;;;;;16.51;100.00;96398.09;5019599;28;19925;-65
2022/09/14 05:40:06;;;;;;;;;;;;;;;16.44;100.00;96408.69;5019744;28;20388;-65
2022/09/14 05:42:34;;;;;;;;;;;;;;;16.41;100.00;96410.13;5024722;28;19925;-65
2022/09/14 05:45:00;;;;;;;;;;;;;;;16.48;100.00;96405.00;5023296;28;19928;-65
2022/09/14 05:47:30;;;;;;;;;;;;;;;16.57;100.00;96399.56;5019340;28;19928;-65
2022/09/14 05:50:01;;;;;;;;;;;;;;;16.64;100.00;96399.94;5024359;28;19931;-65
2022/09/14 05:52:28;;;;;;;;;;;;;;;16.70;100.00;96389.63;5025533;28;19957;-65
2022/09/14 05:54:55;;;;;;;;;;;;;;;16.70;100.00;96386.91;5024190;28;19925;-65
2022/09/14 05:57:22;;;;;;;;;;;;;;;16.79;100.00;96386.94;5016782;28;19925;-66
2022/09/14 05:59:48;;;;;;;;;;;;;;;16.79;100.00;96389.69;5021852;28;19931;-65
2022/09/14 06:02:14;;;;;;;;;;;;;;;16.73;100.00;96377.28;5032005;28;19928;-65
2022/09/14 06:04:43;;;;;;;;;;;;;;;16.81;100.00;96394.84;5024542;28;19952;-66
2022/09/14 06:07:10;;;;;;;;;;;;;;;16.88;100.00;96406.13;5025584;28;20029;-65
2022/09/14 06:09:44;;;;;;;;;;;;;;;17.09;100.00;96413.75;5019346;28;20650;-65
2022/09/14 06:12:10;;;;;;;;;;;;;;;17.23;100.00;96402.69;5029140;28;19960;-65
2022/09/14 06:14:36;;;;;;;;;;;;;;;17.38;100.00;96399.50;5027780;28;20020;-65
2022/09/14 06:17:04;;;;;;;;;;;;;;;17.52;100.00;96387.56;5022804;28;19929;-65
2022/09/14 06:19:30;;;;;;;;;;;;;;;17.60;100.00;96381.31;5020960;28;19921;-65
2022/09/14 06:21:57;;;;;;;;;;;;;;;17.69;100.00;96384.03;5023307;28;19964;-65
2022/09/14 06:24:23;;;;;;;;;;;;;;;17.81;100.00;96369.69;5010596;28;19921;-65
2022/09/14 06:26:50;;;;;;;;;;;;;;;17.83;100.00;96377.59;5023032;28;19998;-66
2022/09/14 06:29:16;;;;;;;;;;;;;;;17.88;100.00;96383.69;5010053;28;19921;-65
2022/09/14 06:31:42;;;;;;;;;;;;;;;17.92;100.00;96378.38;5040379;28;19943;-65
2022/09/14 06:34:09;;;;;;;;;;;;;;;18.05;100.00;96374.66;5019315;28;20004;-65
2022/09/14 06:36:35;;;;;;;;;;;;;;;18.16;100.00;96371.56;5023602;28;19929;-65
2022/09/14 06:39:01;;;;;;;;;;;;;;;18.20;100.00;96367.06;5025065;28;20311;-65
2022/09/14 06:41:29;;;;;;;;;;;;;;;18.21;100.00;96371.44;5019796;28;20025;-64
2022/09/14 06:43:57;;;;;;;;;;;;;;;18.20;100.00;96359.66;5019529;28;20007;-64
2022/09/14 06:46:28;;;;;;;;;;;;;;;18.28;100.00;96359.97;5014610;28;19927;-66
2022/09/14 06:49:00;;;;;;;;;;;;;;;18.39;100.00;96358.44;5025950;28;20502;-65
2022/09/14 06:51:28;;;;;;;;;;;;;;;18.51;100.00;96349.56;5020462;28;20016;-65
2022/09/14 06:53:55;;;;;;;;;;;;;;;18.67;100.00;96347.06;5024596;28;19929;-64
2022/09/14 06:56:22;;;;;;;;;;;;;;;18.80;100.00;96342.44;5027229;28;20593;-64
2022/09/14 06:58:50;;;;;;;;;;;;;;;18.83;100.00;96336.31;5025046;28;20412;-64
2022/09/14 07:01:18;;;;;;;;;;;;;;;18.90;100.00;96345.97;5026212;28;19924;-64
2022/09/14 07:03:50;;;;;;;;;;;;;;;19.02;100.00;96351.53;5027944;28;19925;-64
2022/09/14 07:06:21;;;;;;;;;;;;;;;19.08;100.00;96355.72;5027458;28;19941;-64
2022/09/14 07:08:48;;;;;;;;;;;;;;;19.12;100.00;96358.59;5027716;28;19925;-65
2022/09/14 07:11:18;;;;;;;;;;;;;;;19.22;100.00;96360.16;5026671;28;19929;-65
2022/09/14 07:13:45;;;;;;;;;;;;;;;19.18;100.00;96361.94;5020865;28;20007;-64
2022/09/14 07:16:12;;;;;;;;;;;;;;;19.28;100.00;96358.81;5027326;28;19925;-65
2022/09/14 07:18:38;;;;;;;;;;;;;;;19.29;100.00;96376.06;5025128;28;19924;-65
2022/09/14 07:21:08;;;;;;;;;;;;;;;19.29;100.00;96376.88;5027085;28;19925;-65
2022/09/14 07:23:36;;;;;;;;;;;;;;;19.40;100.00;96373.72;5027037;28;19920;-64
2022/09/14 07:26:10;;;;;;;;;;;;;;;19.44;100.00;96374.69;5033035;28;19998;-65
2022/09/14 07:28:37;;;;;;;;;;;;;;;19.59;100.00;96376.00;5027136;28;20016;-65
2022/09/14 07:31:05;;;;;;;;;;;;;;;19.69;100.00;96375.63;5027055;28;20423;-65
2022/09/14 07:33:31;;;;;;;;;;;;;;;19.81;100.00;96365.81;5027293;28;19963;-64
2022/09/14 07:36:04;;;;;;;;;;;;;;;19.82;100.00;96364.66;5036780;28;19925;-65
2022/09/14 07:38:31;;;;;;;;;;;;;;;19.81;100.00;96372.09;5029376;28;19931;-65
2022/09/14 07:41:17;;;;;;;;;;;;;;;19.85;100.00;96370.28;5025743;28;19925;-64
2022/09/14 07:43:46;;;;;;;;;;;;;;;19.93;100.00;96368.59;5030847;28;19924;-64
2022/09/14 07:46:13;;;;;;;;;;;;;;;19.95;100.00;96376.50;5034156;28;20710;-65
2022/09/14 07:48:39;;;;;;;;;;;;;;;20.10;100.00;96383.34;5026000;28;19936;-65
2022/09/14 07:51:06;;;;;;;;;;;;;;;20.18;100.00;96390.69;5026348;28;19925;-64
2022/09/14 07:53:37;;;;;;;;;;;;;;;20.26;100.00;96388.97;5037098;28;20015;-64
2022/09/14 07:56:04;;;;;;;;;;;;;;;20.36;100.00;96394.06;5037728;28;19935;-64
2022/09/14 07:58:31;;;;;;;;;;;;;;;20.45;99.64;96404.16;5027765;28;19928;-65
2022/09/14 08:01:01;;;;;;;;;;;;;;;20.47;99.06;96399.09;5025950;28;19935;-65
2022/09/14 08:03:28;;;;;;;;;;;;;;;20.62;97.60;96390.19;5026354;28;20754;-65
2022/09/14 08:05:58;;;;;;;;;;;;;;;20.59;97.99;96401.06;5037832;28;19940;-65
2022/09/14 08:08:26;;;;;;;;;;;;;;;20.59;99.23;96403.81;5027031;28;19936;-65
2022/09/14 08:10:53;;;;;;;;;;;;;;;20.58;99.30;96419.53;5024260;28;20295;-65
2022/09/14 08:13:19;;;;;;;;;;;;;;;20.55;99.34;96422.94;5034326;28;19932;-65
2022/09/14 08:15:46;;;;;;;;;;;;;;;20.56;98.93;96410.00;5025920;28;19925;-65
2022/09/14 08:18:13;;;;;;;;;;;;;;;20.70;99.17;96420.66;5039349;28;20304;-65
2022/09/14 08:20:40;;;;;;;;;;;;;;;20.80;95.88;96420.25;5037855;28;19928;-64
2022/09/14 08:23:06;;;;;;;;;;;;;;;20.95;96.93;96431.72;5026378;28;19921;-64
2022/09/14 08:25:32;;;;;;;;;;;;;;;20.99;96.22;96443.66;5035908;28;20284;-64
2022/09/14 08:27:59;;;;;;;;;;;;;;;20.95;95.10;96446.28;5027086;28;19921;-64
2022/09/14 08:30:25;;;;;;;;;;;;;;;20.94;96.26;96449.38;5025850;28;19921;-65
2022/09/14 08:32:51;;;;;;;;;;;;;;;20.88;94.84;96448.81;5045222;28;19935;-64
2022/09/14 08:35:18;;;;;;;;;;;;;;;20.96;93.97;96452.63;5041084;28;20344;-64
2022/09/14 08:38:04;;;;;;;;;;;;;;;21.02;94.96;96453.97;5026470;28;19978;-64
2022/09/14 08:40:30;;;;;;;;;;;;;;;20.90;93.67;96452.81;5038772;28;19924;-64
2022/09/14 08:42:57;;;;;;;;;;;;;;;20.88;94.82;96452.38;5029586;28;19925;-64
2022/09/14 08:45:24;;;;;;;;;;;;;;;20.91;94.41;96462.69;5026200;28;19944;-64
2022/09/14 08:47:51;;;;;;;;;;;;;;;21.04;95.00;96469.00;5025091;28;19925;-64
2022/09/14 08:50:19;;;;;;;;;;;;;;;21.06;95.12;96476.91;5029032;28;19978;-64
2022/09/14 08:52:47;;;;;;;;;;;;;;;21.15;94.67;96472.09;5037484;28;19948;-64
2022/09/14 08:55:33;;;;;;;6.45;2.80;;;;;;;21.23;92.96;96467.63;5024610;28;19932;-64
2022/09/14 08:58:09;;;;;;;5.78;2.50;;;;;;;21.60;91.68;96453.03;5025138;28;20499;-65
2022/09/14 09:00:46;;;;;;;6.07;2.50;;;;;;;21.85;90.60;96447.47;5022339;28;20060;-64
2022/09/14 09:03:51;;;;;;;6.32;2.30;;;;;;;22.10;88.23;96444.63;5025365;28;20056;-64
2022/09/14 09:06:22;;;;;;;4.35;2.75;;;;;;;22.28;88.04;96447.88;5024732;28;20050;-64
2022/09/14 09:09:12;;;;;;;5.53;2.28;;;;;;;22.43;86.21;96438.03;5025355;28;20131;-64
2022/09/14 09:11:42;;;;;;;4.53;2.17;;;;;;;22.50;86.94;96428.34;5027851;28;20053;-64
2022/09/14 09:14:28;;;;;;;7.88;2.13;;;;;;;22.49;86.66;96435.84;5032458;28;20054;-65
2022/09/14 09:16:58;;;;;;;6.97;2.50;;;;;;;22.11;86.88;96456.47;5015140;28;20581;-64
2022/09/14 09:19:42;;;;;;;9.15;2.53;;;;;;;21.91;87.38;96468.13;5024254;28;20125;-64
2022/09/14 09:22:13;;;;;;;6.50;2.40;;;;;;;;;;5036152;28;20451;-64
2022/09/14 09:24:44;;;;;;;4.15;2.25;;;;;;;22.15;84.44;96471.16;5031044;28;20060;-64
2022/09/14 09:27:12;;;;;;;4.68;2.40;;;;;;;22.13;85.81;96466.00;5031310;28;20053;-64
2022/09/14 09:29:39;;;;;;;9.38;2.47;;;;;;;22.30;85.32;96459.34;5011159;28;20045;-64
2022/09/14 09:32:22;;;;;;;8.27;2.72;;;;;;;22.45;84.20;96444.00;5024417;28;20159;-64
2022/09/14 09:35:21;;;;;;;15.57;2.80;;;;;;;22.55;85.21;96441.94;5030369;28;20053;-64
2022/09/14 09:37:59;;;;;;;5.00;2.22;;;;;;;22.53;83.76;96428.44;5023869;28;20041;-63
2022/09/14 09:40:43;;;;;;;5.82;2.58;;;;;;;22.74;85.78;96428.22;5035240;28;20065;-63
2022/09/14 09:43:17;;;;;;;6.07;2.20;;;;;;;22.81;82.63;96429.56;5026821;28;20072;-64
2022/09/14 09:46:06;;;;;;;3.65;2.28;;;;;;;22.78;82.53;96416.47;5013329;28;20049;-64
2022/09/14 09:48:40;;;;;;;7.22;2.47;;;;;;;22.74;80.22;96408.91;5022968;28;20084;-63
2022/09/14 09:51:33;;;;;;;6.25;2.13;;;;;;;22.80;79.40;96409.44;5024085;28;20077;-64
2022/09/14 09:54:11;;;;;;;5.90;1.90;;;;;;;22.95;78.31;96384.94;5032234;28;20583;-64
2022/09/14 09:56:49;;;;;;;5.45;2.50;;;;;;;23.08;79.59;96389.22;5036824;28;20214;-64
2022/09/14 09:59:39;;;;;;;6.25;2.20;;;;;;;23.09;78.63;96385.28;5024395;28;20033;-64
2022/09/14 10:02:31;;;;;;;22.65;3.05;;;;;;;23.12;78.58;96381.00;5010893;28;20057;-63
2022/09/14 10:04:58;;;;;;;7.70;2.20;;;;;;;23.23;77.00;96389.53;5038590;28;20061;-64
2022/09/14 10:07:26;;;;;;;10.13;1.77;;;;;;;23.13;75.58;96393.66;5032079;28;20059;-63
2022/09/14 10:10:22;;;;;;;17.48;2.30;;;;;;;23.16;74.50;96386.59;5022420;28;20113;-63
2022/09/14 10:12:52;;;;;;;9.93;2.20;;;;;;;23.02;76.54;96387.06;5035100;28;20061;-63
2022/09/14 10:15:32;;;;;;;5.50;1.90;;;;;;;22.93;75.79;96387.28;5043441;28;20064;-63
2022/09/14 10:18:11;;;;;;;7.63;2.00;;;;;;;22.90;77.50;96376.94;5025308;28;20055;-63
2022/09/14 10:20:43;;;;;;;5.28;1.95;;;;;;;22.99;77.19;96385.81;5022728;28;20038;-64
2022/09/14 10:23:18;;;;;;;11.45;2.42;;;;;;;22.95;77.12;96377.47;5022494;28;20049;-63
2022/09/14 10:25:46;;;;;;;2.72;1.50;;;;;;;23.10;75.83;96373.09;5025043;28;20053;-64
2022/09/14 10:28:29;;;;;;;3.95;2.08;;;;;;;23.26;77.79;96370.28;5028262;28;20045;-64
2022/09/14 10:31:14;;;;;;;5.30;1.80;;;;;;;23.26;74.97;96370.28;5027105;28;20439;-64
2022/09/14 10:33:41;;;;;;;5.63;2.00;;;;;;;23.46;74.15;96358.50;5029294;28;20060;-64
2022/09/14 10:36:16;;;;;;;4.22;2.10;;;;;;;23.51;75.06;96341.63;5023841;28;20104;-64
2022/09/14 10:38:51;;;;;;;3.58;1.60;;;;;;;23.48;71.76;96345.13;5022982;28;20041;-64
2022/09/14 10:41:30;;;;;;;4.93;1.95;;;;;;;23.47;74.21;96336.03;5023849;28;20124;-63
2022/09/14 10:44:18;;;;;;;5.10;1.77;;;;;;;23.67;71.77;96341.56;5024457;28;20188;-64
2022/09/14 10:46:56;;;;;;;3.25;1.48;;;;;;;23.82;70.91;96336.31;5023111;28;20045;-64
2022/09/14 10:49:36;;;;;;;11.30;2.15;;;;;;;23.95;71.11;96328.66;5023060;28;20630;-63
2022/09/14 10:52:18;;;;;;;16.73;2.88;;;;;;;24.09;70.90;96314.28;5022407;28;20052;-64
2022/09/14 10:55:30;;;;;;;6.75;2.05;;;;;;;24.27;71.08;96309.13;5030359;28;20056;-64
2022/09/14 10:58:29;;;;;;;10.43;2.30;;;;;;;24.19;70.12;96301.84;5015930;28;20052;-65
2022/09/14 11:01:15;;;;;;;179.73;14.18;;;;;;;24.31;69.80;96304.44;5013117;28;20604;-65
2022/09/14 11:04:03;;;;;;;3.88;1.50;;;;;;;24.19;69.59;96305.44;5041916;28;20120;-64
2022/09/14 11:06:36;;;;;;;15.52;2.75;;;;;;;24.18;69.25;96294.75;5024220;28;20036;-64
2022/09/14 11:09:17;;;;;;;3.38;1.88;;;;;;;24.24;69.59;96288.53;5033565;28;20496;-65
2022/09/14 11:12:12;;;;;;;8.02;1.85;;;;;;;24.18;67.08;96290.00;5026140;28;20059;-64
2022/09/14 11:14:56;;;;;;;6.75;1.95;;;;;;;24.33;66.42;96293.81;5005106;28;20096;-64
2022/09/14 11:17:41;;;;;;;3.85;2.03;;;;;;;24.48;66.83;96285.75;5013703;28;20142;-64
2022/09/14 11:20:25;;;;;;;4.05;1.52;;;;;;;24.56;65.01;96290.22;5023011;28;20607;-64
2022/09/14 11:23:06;;;;;;;6.53;1.88;;;;;;;24.74;66.09;96282.22;5026447;28;20059;-64
2022/09/14 11:25:41;;;;;;;3.85;1.77;;;;;;;24.73;64.69;96290.88;5026986;28;20454;-64
2022/09/14 11:28:26;;;;;;;5.50;1.65;;;;;;;24.48;62.68;96286.56;5026357;28;20045;-64
2022/09/14 11:31:05;;;;;;;6.13;1.70;;;;;;;24.35;64.17;96283.19;5026538;28;20049;-64
2022/09/14 11:33:39;;;;;;;7.50;1.75;;;;;;;24.37;64.94;96289.16;5026664;28;20099;-64
2022/09/14 11:36:15;;;;;;;3.63;1.50;;;;;;;24.41;67.29;96283.66;5026281;28;20128;-64
2022/09/14 11:38:55;;;;;;;5.68;1.98;;;;;;;24.34;65.28;96270.53;5026029;28;20536;-64
2022/09/14 11:41:53;;;;;;;4.68;1.83;;;;;;;24.39;65.63;96286.00;5026773;28;20052;-64
2022/09/14 11:44:30;;;;;;;6.03;1.65;;;;;;;24.44;65.77;96280.16;5041497;28;20554;-64
2022/09/14 11:47:03;;;;;;;4.35;1.42;;;;;;;24.50;66.16;96283.41;5030439;28;20080;-64
2022/09/14 11:49:54;;;;;;;6.00;1.58;;;;;;;24.49;64.73;96279.03;5025795;28;20047;-64
2022/09/14 11:52:20;;;;;;;;;;;;;;;24.61;63.94;96278.84;5017186;28;20040;-64
2022/09/14 11:54:49;;;;;;;3.35;1.50;;;;;;;24.52;64.17;96278.31;5032505;28;20456;-64
2022/09/14 11:57:19;;;;;;;4.90;2.15;;;;;;;24.61;64.51;96286.34;5034100;28;20526;-64
2022/09/14 11:59:54;;;;;;;2.83;1.40;;;;;;;24.61;64.57;96286.34;5031574;28;20132;-64
2022/09/14 12:02:26;;;;;;;2.92;1.60;;;;;;;24.44;64.26;96291.22;5025773;28;20672;-64
2022/09/14 12:05:09;;;;;;;5.13;1.80;;;;;;;24.18;66.03;96284.47;5026103;28;20053;-64
2022/09/14 12:07:38;;;;;;;5.53;1.67;;;;;;;24.06;66.81;96287.41;5028228;28;20124;-64
2022/09/14 12:10:14;;;;;;;5.93;1.60;;;;;;;24.04;65.46;96279.47;5027362;28;20524;-64
2022/09/14 12:12:40;;;;;;;4.43;1.50;;;;;;;24.00;64.79;96293.22;5038944;28;20530;-64
2022/09/14 12:15:36;;;;;;;3.70;1.35;;;;;;;23.95;65.58;96298.25;5047283;28;20063;-64
2022/09/14 12:18:06;;;;;;;5.95;1.48;;;;;;;23.84;66.09;96295.31;5047320;28;20060;-64
2022/09/14 12:21:00;;;;;;;4.60;1.77;;;;;;;23.65;67.48;96299.66;5047396;28;20033;-64
2022/09/14 12:23:36;;;;;;;4.18;1.60;;;;;;;23.56;66.50;96304.63;5037080;28;20077;-64
2022/09/14 12:26:05;;;;;;;6.97;1.73;;;;;;;23.52;66.66;96304.56;5026628;28;20060;-65
2022/09/14 12:28:34;;;;;;;8.15;1.75;;;;;;;23.43;67.90;96315.03;5037093;28;20099;-64
2022/09/14 12:31:04;;;;;;;5.53;1.80;;;;;;;23.41;69.20;96320.09;5038727;28;20069;-64
2022/09/14 12:33:31;;;;;;;3.78;1.70;;;;;;;23.24;70.40;96330.38;5026733;28;20048;-64
2022/09/14 12:35:58;;;;;;;4.45;1.60;;;;;;;23.01;72.43;96336.59;5027695;28;20069;-64
2022/09/14 12:38:28;;;;;;;4.10;1.88;;;;;;;22.90;73.49;96347.38;5027692;28;20092;-64
2022/09/14 12:40:55;;;;;;;4.78;1.70;;;;;;;22.46;77.84;96345.53;5026695;28;20049;-64
2022/09/14 12:43:34;;;;;;;6.32;2.42;;;;;;;22.01;80.29;96359.34;5031087;28;20048;-64
2022/09/14 12:46:06;;;;;;;11.90;2.63;;;;;;;21.43;84.54;96357.69;5027133;28;20111;-64